Portada
METAR-TAF:

METAR-TAF

Aeroports :

Apalachicola, Florida, Estats Units d'Amèrica

latitud: 29-43-37N, longitud: 085-01-29W, altitud: 6 m

Observació

L'informe es va fer fa 35 minuts, a les 08:53 UTC
Vent 6 kt del Nord/Nord-Est
Temperatura 1°C
Humitat 59%
Pressió 1027 hPa
Visibilitat: 16.1 km
Cel clar

METAR: KAAF 220853Z AUTO 02006KT 10SM CLR 01/M06 A3033 RMK AO2 SLP269 T00111061 55011

Hora: 04:28 (09:28 UTC)


TAF: manca

Observacions i pronòstics meteorològics de més de 4000 aeroports (METAR i TAF).

Les estacions disponibles són els punts grocs i vermells al mapa.

Posi el ratolí al punt desitjat per veure el nom de l'estació.

Feu clic per veure les observacions i els pronòstics meteorològics.

Per canviar el mapa: feu clic els botons verds amb una creu de color negre per apropar; al botó verd amb un guió per allunyar la imatge; o en les fletxes verdes per a mapes adjacents.


METAR-TAF: